Time;durP1;ratioP1;P1;durP2;ratioP2;P2;SDS_P1;SDS_P2;PMS_P1;PMS_P2;Temp;Humidity;BMP_temperature;BMP_pressure;BME280_temperature;BME280_humidity;BME280_pressure;Samples;Min_cycle;Max_cycle;Signal;HPM_P1;HPM_P2
2023/06/04 00:01:13;;;;;;;0.10;0.10;;;;;;;;;;5042720;28;20049;-77
2023/06/04 00:03:41;;;;;;;0.20;0.20;;;;;;;;;;5044704;28;20053;-78
2023/06/04 00:06:08;;;;;;;0.10;0.10;;;;;;;;;;5044415;28;20057;-78
2023/06/04 00:08:34;;;;;;;0.10;0.10;;;;;;;;;;5042208;28;20557;-79
2023/06/04 00:11:01;;;;;;;0.10;0.10;;;;;;;;;;5044680;28;20919;-78
2023/06/04 00:13:27;;;;;;;0.10;0.10;;;;;;;;;;5045624;28;20503;-78
2023/06/04 00:15:54;;;;;;;0.10;0.10;;;;;;;;;;5042773;28;20061;-78
2023/06/04 00:18:20;;;;;;;0.10;0.10;;;;;;;;;;5044591;28;20124;-78
2023/06/04 00:20:46;;;;;;;0.10;0.10;;;;;;;;;;5045776;28;20325;-79
2023/06/04 00:23:13;;;;;;;0.10;0.10;;;;;;;;;;5039249;28;20061;-79
2023/06/04 00:25:39;;;;;;;0.10;0.10;;;;;;;;;;5045685;28;20654;-79
2023/06/04 00:28:06;;;;;;;0.10;0.10;;;;;;;;;;5044768;28;20735;-78
2023/06/04 00:30:32;;;;;;;0.10;0.10;;;;;;;;;;5041744;28;20140;-78
2023/06/04 00:32:59;;;;;;;0.10;0.10;;;;;;;;;;5043511;28;20053;-78
2023/06/04 00:35:26;;;;;;;0.10;0.10;;;;;;;;;;5043909;28;20056;-77
2023/06/04 00:37:53;;;;;;;0.10;0.10;;;;;;;;;;5043927;28;20137;-78
2023/06/04 00:40:19;;;;;;;0.10;0.10;;;;;;;;;;5041641;28;20589;-77
2023/06/04 00:42:46;;;;;;;0.10;0.10;;;;;;;;;;5043183;28;20049;-77
2023/06/04 00:45:15;;;;;;;0.10;0.10;;;;;;;;;;5036589;28;20050;-77
2023/06/04 00:47:42;;;;;;;0.10;0.10;;;;;;;;;;5021308;28;20050;-77
2023/06/04 00:50:08;;;;;;;0.10;0.10;;;;;;;;;;5023172;28;20137;-76
2023/06/04 00:52:38;;;;;;;0.10;0.10;;;;;;;;;;5022882;28;20054;-76
2023/06/04 00:55:05;;;;;;;0.10;0.10;;;;;;;;;;5035681;28;20180;-77
2023/06/04 00:57:31;;;;;;;0.20;0.20;;;;;;;;;;5043025;28;20053;-76
2023/06/04 00:59:57;;;;;;;0.10;0.10;;;;;;;;;;5040771;28;20516;-76
2023/06/04 01:02:25;;;;;;;0.10;0.10;;;;;;;;;;5042910;28;20164;-77
2023/06/04 01:05:14;;;;;;;0.10;0.10;;;;;;;;;;5043123;28;20060;-76
2023/06/04 01:07:45;;;;;;;0.10;0.10;;;;;;;;;;5042249;28;20504;-76
2023/06/04 01:10:12;;;;;;;0.10;0.10;;;;;;;;;;5039843;28;20057;-76
2023/06/04 01:12:44;;;;;;;0.10;0.10;;;;;;;;;;5042115;28;20165;-76
2023/06/04 01:15:13;;;;;;;0.10;0.10;;;;;;;;;;5037594;28;21167;-76
2023/06/04 01:17:43;;;;;;;0.10;0.10;;;;;;;;;;5042710;28;20061;-78
2023/06/04 01:20:16;;;;;;;0.10;0.10;;;;;;;;;;5044005;28;20076;-78
2023/06/04 01:22:47;;;;;;;0.10;0.10;;;;;;;;;;5046327;28;20049;-78
2023/06/04 01:25:23;;;;;;;0.10;0.10;;;;;;;;;;5043001;28;20052;-78
2023/06/04 01:27:52;;;;;;;0.10;0.10;;;;;;;;;;5044134;28;20110;-78
2023/06/04 01:30:25;;;;;;;0.20;0.20;;;;;;;;;;5043063;28;20057;-78
2023/06/04 01:32:52;;;;;;;0.20;0.20;;;;;;;;;;5045604;28;20057;-78
2023/06/04 01:35:19;;;;;;;0.10;0.10;;;;;;;;;;5041889;28;20049;-77
2023/06/04 01:37:46;;;;;;;0.10;0.10;;;;;;;;;;5042595;28;20045;-78
2023/06/04 01:40:12;;;;;;;0.10;0.10;;;;;;;;;;5046393;28;20062;-76
2023/06/04 01:42:42;;;;;;;0.10;0.10;;;;;;;;;;5045555;28;20050;-76
2023/06/04 01:45:14;;;;;;;0.10;0.10;;;;;;;;;;5043226;28;20534;-77
2023/06/04 01:47:46;;;;;;;0.38;0.35;;;;;;;;;;5043604;28;20609;-77
2023/06/04 01:50:16;;;;;;;0.10;0.10;;;;;;;;;;5039214;28;20053;-76
2023/06/04 01:52:50;;;;;;;0.10;0.10;;;;;;;;;;5025750;28;20054;-76
2023/06/04 01:55:25;;;;;;;0.10;0.10;;;;;;;;;;5042115;28;20108;-76
2023/06/04 01:57:57;;;;;;;0.10;0.10;;;;;;;;;;5044560;28;20526;-76
2023/06/04 02:00:30;;;;;;;0.15;0.15;;;;;;;;;;5039621;28;20159;-76
2023/06/04 02:03:03;;;;;;;0.10;0.10;;;;;;;;;;5043850;28;20049;-76
2023/06/04 02:05:37;;;;;;;0.10;0.10;;;;;;;;;;5041604;28;20056;-76
2023/06/04 02:08:09;;;;;;;0.10;0.10;;;;;;;;;;5045450;28;20547;-76
2023/06/04 02:10:41;;;;;;;0.10;0.10;;;;;;;;;;5043775;28;20089;-76
2023/06/04 02:13:18;;;;;;;0.10;0.10;;;;;;;;;;5043083;28;20076;-76
2023/06/04 02:15:53;;;;;;;0.10;0.10;;;;;;;;;;5038422;28;20053;-76
2023/06/04 02:18:24;;;;;;;0.17;0.17;;;;;;;;;;5043791;28;20091;-76
2023/06/04 02:20:56;;;;;;;0.10;0.10;;;;;;;;;;5042564;28;20562;-76
2023/06/04 02:23:30;;;;;;;0.10;0.10;;;;;;;;;;5045105;28;20582;-76
2023/06/04 02:26:01;;;;;;;0.10;0.10;;;;;;;;;;5107250;22;20645;-76
2023/06/04 02:28:35;;;;;;;0.10;0.10;;;;;;;;;;5062774;28;20060;-76
2023/06/04 02:31:10;;;;;;;0.10;0.10;;;;;;;;;;5065102;28;20431;-76
2023/06/04 02:33:43;;;;;;;0.10;0.10;;;;;;;;;;5060114;28;20053;-76
2023/06/04 02:36:18;;;;;;;0.10;0.10;;;;;;;;;;5064838;28;20053;-76
2023/06/04 02:38:51;;;;;;;0.10;0.10;;;;;;;;;;5058446;28;20479;-76
2023/06/04 02:41:25;;;;;;;0.10;0.10;;;;;;;;;;5064946;28;20541;-75
2023/06/04 02:43:57;;;;;;;0.10;0.10;;;;;;;;;;5064879;28;20060;-76
2023/06/04 02:46:30;;;;;;;0.10;0.10;;;;;;;;;;5063615;28;20059;-76
2023/06/04 02:49:02;;;;;;;0.10;0.10;;;;;;;;;;5060247;28;20060;-76
2023/06/04 02:51:36;;;;;;;0.10;0.10;;;;;;;;;;5062685;28;20044;-76
2023/06/04 02:54:09;;;;;;;0.10;0.10;;;;;;;;;;5064748;28;20122;-76
2023/06/04 02:56:44;;;;;;;0.10;0.10;;;;;;;;;;5064434;28;20057;-76
2023/06/04 02:59:17;;;;;;;0.10;0.10;;;;;;;;;;5064986;28;20091;-76
2023/06/04 03:01:47;;;;;;;0.10;0.10;;;;;;;;;;5063125;28;20139;-77
2023/06/04 03:04:18;;;;;;;0.10;0.10;;;;;;;;;;5060788;28;20061;-76
2023/06/04 03:06:57;;;;;;;0.10;0.10;;;;;;;;;;5057550;28;20502;-76
2023/06/04 03:09:34;;;;;;;0.10;0.10;;;;;;;;;;5064991;28;20510;-76
2023/06/04 03:12:08;;;;;;;0.10;0.10;;;;;;;;;;5063946;28;20057;-76
2023/06/04 03:14:48;;;;;;;0.10;0.10;;;;;;;;;;5065427;28;20068;-76
2023/06/04 03:17:26;;;;;;;0.10;0.10;;;;;;;;;;5059566;28;20049;-77
2023/06/04 03:19:59;;;;;;;0.10;0.10;;;;;;;;;;5063803;28;20525;-77
2023/06/04 03:22:33;;;;;;;0.10;0.10;;;;;;;;;;5055601;28;20061;-77
2023/06/04 03:25:06;;;;;;;0.10;0.10;;;;;;;;;;5045454;28;20530;-78
2023/06/04 03:27:41;;;;;;;0.10;0.10;;;;;;;;;;5056049;28;20542;-78
2023/06/04 03:30:13;;;;;;;0.10;0.10;;;;;;;;;;5066322;28;20152;-77
2023/06/04 03:32:47;;;;;;;0.80;0.40;;;;;;;;;;5063063;28;20053;-77
2023/06/04 03:35:20;;;;;;;0.10;0.10;;;;;;;;;;5064319;28;20048;-77
2023/06/04 03:37:53;;;;;;;0.10;0.10;;;;;;;;;;5060725;28;20084;-77
2023/06/04 03:40:26;;;;;;;0.10;0.10;;;;;;;;;;5065431;28;20053;-77
2023/06/04 03:42:56;;;;;;;;;;;;;;;;;;5065171;28;20156;-77
2023/06/04 03:45:30;;;;;;;0.10;0.10;;;;;;;;;;5065522;28;46172;-78
2023/06/04 03:48:02;;;;;;;0.10;0.10;;;;;;;;;;5062134;28;20049;-77
2023/06/04 03:50:35;;;;;;;0.10;0.10;;;;;;;;;;5046436;28;20053;-77
2023/06/04 03:53:09;;;;;;;0.10;0.10;;;;;;;;;;5062139;28;20080;-77
2023/06/04 03:55:43;;;;;;;0.10;0.10;;;;;;;;;;5065580;28;20053;-77
2023/06/04 03:58:14;;;;;;;0.10;0.10;;;;;;;;;;5059246;28;20111;-77
2023/06/04 04:00:47;;;;;;;0.10;0.10;;;;;;;;;;5065432;28;20123;-77
2023/06/04 04:03:19;;;;;;;0.10;0.10;;;;;;;;;;5060017;28;20057;-77
2023/06/04 04:05:51;;;;;;;0.10;0.10;;;;;;;;;;5066239;28;20655;-77
2023/06/04 04:08:22;;;;;;;0.10;0.10;;;;;;;;;;5061702;28;20061;-77
2023/06/04 04:10:54;;;;;;;0.10;0.10;;;;;;;;;;5065539;28;20465;-77
2023/06/04 04:13:27;;;;;;;0.10;0.10;;;;;;;;;;5064985;28;20049;-77
2023/06/04 04:16:00;;;;;;;0.10;0.10;;;;;;;;;;5064522;28;20065;-77
2023/06/04 04:18:33;;;;;;;0.10;0.10;;;;;;;;;;5060116;28;20057;-77
2023/06/04 04:21:07;;;;;;;0.28;0.28;;;;;;;;;;5060319;28;20148;-78
2023/06/04 04:23:42;;;;;;;0.10;0.10;;;;;;;;;;5045688;28;20494;-78
2023/06/04 04:26:16;;;;;;;0.10;0.10;;;;;;;;;;5044488;28;20060;-77
2023/06/04 04:28:48;;;;;;;0.10;0.10;;;;;;;;;;5045063;28;20064;-76
2023/06/04 04:31:22;;;;;;;0.10;0.10;;;;;;;;;;5046300;28;20060;-76
2023/06/04 04:33:56;;;;;;;0.10;0.10;;;;;;;;;;5062059;28;20049;-77
2023/06/04 04:36:32;;;;;;;0.15;0.15;;;;;;;;;;5055858;28;20096;-76
2023/06/04 04:39:05;;;;;;;0.10;0.10;;;;;;;;;;5061734;28;20053;-76
2023/06/04 04:41:41;;;;;;;0.10;0.10;;;;;;;;;;5061914;28;20060;-77
2023/06/04 04:44:16;;;;;;;0.10;0.10;;;;;;;;;;5063422;28;20049;-76
2023/06/04 04:46:52;;;;;;;0.10;0.10;;;;;;;;;;5060458;28;20403;-77
2023/06/04 04:49:25;;;;;;;0.52;0.30;;;;;;;;;;5060623;28;20064;-77
2023/06/04 04:51:57;;;;;;;0.10;0.10;;;;;;;;;;5059276;28;20053;-77
2023/06/04 04:54:30;;;;;;;0.10;0.10;;;;;;;;;;5062763;28;20049;-76
2023/06/04 04:57:01;;;;;;;0.10;0.10;;;;;;;;;;5056902;28;20057;-77
2023/06/04 04:59:40;;;;;;;;;;;;;;;;;;5060210;28;20056;-76
2023/06/04 05:02:13;;;;;;;0.10;0.10;;;;;;;;;;5062171;28;44163;-76
2023/06/04 05:04:46;;;;;;;0.10;0.10;;;;;;;;;;5062965;28;20056;-77
2023/06/04 05:07:19;;;;;;;0.10;0.10;;;;;;;;;;5062812;28;20535;-76
2023/06/04 05:09:52;;;;;;;0.10;0.10;;;;;;;;;;5062052;28;20060;-76
2023/06/04 05:12:28;;;;;;;0.10;0.10;;;;;;;;;;5065490;28;20049;-76
2023/06/04 05:15:03;;;;;;;0.73;0.73;;;;;;;;;;5058980;28;20049;-76
2023/06/04 05:17:35;;;;;;;0.10;0.10;;;;;;;;;;5066066;28;20053;-76
2023/06/04 05:20:11;;;;;;;0.10;0.10;;;;;;;;;;5066000;28;20557;-76
2023/06/04 05:22:46;;;;;;;0.10;0.10;;;;;;;;;;5066065;28;20576;-76
2023/06/04 05:25:18;;;;;;;0.10;0.10;;;;;;;;;;5059125;28;20053;-76
2023/06/04 05:27:51;;;;;;;0.10;0.10;;;;;;;;;;5046935;28;20526;-76
2023/06/04 05:30:24;;;;;;;0.10;0.10;;;;;;;;;;5060413;28;20052;-76
2023/06/04 05:32:59;;;;;;;0.10;0.10;;;;;;;;;;5045919;28;20054;-77
2023/06/04 05:35:32;;;;;;;0.10;0.10;;;;;;;;;;5044258;28;20053;-76
2023/06/04 05:38:04;;;;;;;0.10;0.10;;;;;;;;;;5045851;28;20049;-77
2023/06/04 05:40:48;;;;;;;0.10;0.10;;;;;;;;;;5060087;28;20500;-76
2023/06/04 05:43:20;;;;;;;0.10;0.10;;;;;;;;;;5060408;28;20073;-76
2023/06/04 05:45:53;;;;;;;0.45;0.45;;;;;;;;;;5063210;28;20057;-76
2023/06/04 05:48:26;;;;;;;0.10;0.10;;;;;;;;;;5065907;28;20045;-76
2023/06/04 05:50:57;;;;;;;0.10;0.10;;;;;;;;;;5063402;28;20057;-79
2023/06/04 05:53:30;;;;;;;0.10;0.10;;;;;;;;;;5067640;28;20060;-77
2023/06/04 05:56:03;;;;;;;0.10;0.10;;;;;;;;;;5066520;28;20059;-78
2023/06/04 05:58:34;;;;;;;0.10;0.10;;;;;;;;;;5050078;28;20467;-77
2023/06/04 06:01:08;;;;;;;0.10;0.10;;;;;;;;;;5061256;28;20060;-79
2023/06/04 06:03:38;;;;;;;0.10;0.10;;;;;;;;;;5070240;28;20553;-79
2023/06/04 06:06:12;;;;;;;1.08;0.47;;;;;;;;;;5067438;28;20052;-78
2023/06/04 06:08:45;;;;;;;0.52;0.52;;;;;;;;;;5063805;28;20052;-79
2023/06/04 06:11:16;;;;;;;0.10;0.10;;;;;;;;;;5063067;28;20544;-77
2023/06/04 06:13:50;;;;;;;0.10;0.10;;;;;;;;;;5064107;28;20064;-78
2023/06/04 06:16:24;;;;;;;0.20;0.20;;;;;;;;;;5059962;28;20049;-77
2023/06/04 06:18:56;;;;;;;0.20;0.20;;;;;;;;;;5068705;28;20102;-78
2023/06/04 06:21:25;;;;;;;0.10;0.10;;;;;;;;;;5079933;28;20088;-78
2023/06/04 06:23:53;;;;;;;0.43;0.22;;;;;;;;;;5078003;28;20049;-78
2023/06/04 06:26:22;;;;;;;0.10;0.10;;;;;;;;;;5067144;28;20063;-79
2023/06/04 06:28:51;;;;;;;;;;;;;;;;;;5086998;28;20056;-74
2023/06/04 06:31:23;;;;;;;0.45;0.45;;;;;;;;;;5084365;28;47204;-76
2023/06/04 06:33:55;;;;;;;0.10;0.10;;;;;;;;;;5067930;28;20058;-76
2023/06/04 06:39:25;;;;;;;0.20;0.20;;;;;;;;;;5238059;22;20554;-76
2023/06/04 06:41:52;;;;;;;0.10;0.10;;;;;;;;;;5027393;28;20516;-76
2023/06/04 06:44:18;;;;;;;0.35;0.25;;;;;;;;;;5062499;28;20048;-76
2023/06/04 06:46:44;;;;;;;0.10;0.10;;;;;;;;;;5033154;28;20116;-76
2023/06/04 06:49:11;;;;;;;0.40;0.40;;;;;;;;;;5014701;28;20053;-76
2023/06/04 06:51:37;;;;;;;0.32;0.32;;;;;;;;;;5016135;28;20073;-76
2023/06/04 06:54:04;;;;;;;0.20;0.20;;;;;;;;;;5023697;28;20061;-76
2023/06/04 06:56:30;;;;;;;0.10;0.10;;;;;;;;;;5035742;28;20057;-76
2023/06/04 06:58:57;;;;;;;0.10;0.10;;;;;;;;;;5019786;28;20058;-76
2023/06/04 07:01:23;;;;;;;0.10;0.10;;;;;;;;;;5021828;28;20058;-77
2023/06/04 07:03:50;;;;;;;0.30;0.30;;;;;;;;;;5023296;28;20528;-76
2023/06/04 07:06:16;;;;;;;0.10;0.10;;;;;;;;;;5028367;28;20053;-76
2023/06/04 07:08:43;;;;;;;1.33;0.35;;;;;;;;;;5021059;28;20472;-76
2023/06/04 07:11:11;;;;;;;0.10;0.10;;;;;;;;;;5036582;28;20050;-77
2023/06/04 07:13:39;;;;;;;0.20;0.20;;;;;;;;;;5027999;28;20554;-77
2023/06/04 07:16:05;;;;;;;0.10;0.10;;;;;;;;;;5030128;28;20577;-76
2023/06/04 07:21:36;;;;;;;0.20;0.20;;;;;;;;;;5896915;22;20399;-76
2023/06/04 07:24:02;;;;;;;0.10;0.10;;;;;;;;;;5054635;28;20053;-75
2023/06/04 07:26:30;;;;;;;0.10;0.10;;;;;;;;;;5072711;28;20135;-74
2023/06/04 07:29:00;;;;;;;0.30;0.30;;;;;;;;;;5083420;28;20080;-76
2023/06/04 07:31:26;;;;;;;0.52;0.38;;;;;;;;;;5080511;28;20600;-76
2023/06/04 07:33:53;;;;;;;0.20;0.20;;;;;;;;;;5081883;28;20052;-77
2023/06/04 07:36:20;;;;;;;2.38;0.50;;;;;;;;;;5083150;28;20052;-76
2023/06/04 07:38:47;;;;;;;0.30;0.30;;;;;;;;;;5082793;28;20094;-76
2023/06/04 07:41:13;;;;;;;0.20;0.20;;;;;;;;;;5082940;28;20528;-76
2023/06/04 07:43:40;;;;;;;0.15;0.15;;;;;;;;;;5076037;28;20060;-75
2023/06/04 07:46:07;;;;;;;0.20;0.20;;;;;;;;;;5082008;28;20057;-76
2023/06/04 07:48:33;;;;;;;3.03;0.43;;;;;;;;;;5082815;28;20052;-77
2023/06/04 07:51:00;;;;;;;0.30;0.28;;;;;;;;;;5077305;28;20053;-74
2023/06/04 07:53:27;;;;;;;0.20;0.20;;;;;;;;;;5082083;28;20520;-74
2023/06/04 07:55:53;;;;;;;0.20;0.20;;;;;;;;;;5081355;28;20056;-76
2023/06/04 07:58:20;;;;;;;0.20;0.20;;;;;;;;;;5075329;28;20171;-75
2023/06/04 08:00:46;;;;;;;0.10;0.10;;;;;;;;;;5081395;28;20057;-77
2023/06/04 08:03:15;;;;;;;0.20;0.20;;;;;;;;;;5073109;28;20080;-77
2023/06/04 08:05:41;;;;;;;0.85;0.30;;;;;;;;;;5082679;28;20049;-74
2023/06/04 08:08:08;;;;;;;0.20;0.20;;;;;;;;;;5082341;28;20057;-76
2023/06/04 08:10:34;;;;;;;0.20;0.20;;;;;;;;;;5081823;28;20149;-75
2023/06/04 08:13:00;;;;;;;0.20;0.20;;;;;;;;;;5083507;28;20168;-76
2023/06/04 08:15:27;;;;;;;0.20;0.20;;;;;;;;;;5083411;28;20076;-76
2023/06/04 08:17:53;;;;;;;0.40;0.40;;;;;;;;;;5081635;28;21009;-76
2023/06/04 08:20:20;;;;;;;0.20;0.20;;;;;;;;;;5083216;28;20062;-76
2023/06/04 08:22:46;;;;;;;0.30;0.30;;;;;;;;;;5082238;28;20087;-76
2023/06/04 08:25:13;;;;;;;0.17;0.17;;;;;;;;;;5079621;28;20048;-76
2023/06/04 08:27:40;;;;;;;0.20;0.20;;;;;;;;;;5084549;28;20056;-75
2023/06/04 08:30:07;;;;;;;0.35;0.30;;;;;;;;;;5080913;28;20511;-76
2023/06/04 08:32:33;;;;;;;0.25;0.25;;;;;;;;;;5082044;28;20522;-75
2023/06/04 08:35:00;;;;;;;0.20;0.20;;;;;;;;;;5078067;28;20159;-75
2023/06/04 08:37:26;;;;;;;0.20;0.20;;;;;;;;;;5080779;28;20960;-76
2023/06/04 08:39:53;;;;;;;0.20;0.20;;;;;;;;;;5079300;28;20063;-75
2023/06/04 08:42:29;;;;;;;0.55;0.55;;;;;;;;;;5082375;28;20553;-76
2023/06/04 08:44:56;;;;;;;0.22;0.22;;;;;;;;;;5072272;28;20052;-74
2023/06/04 08:47:24;;;;;;;0.20;0.20;;;;;;;;;;5081545;28;20056;-76
2023/06/04 08:49:51;;;;;;;0.20;0.20;;;;;;;;;;5079990;28;20048;-74
2023/06/04 08:52:21;;;;;;;0.20;0.20;;;;;;;;;;5080245;28;20064;-76
2023/06/04 08:54:51;;;;;;;0.20;0.20;;;;;;;;;;5079108;28;20461;-75
2023/06/04 08:57:17;;;;;;;;;;;;;;;;;;5072215;28;20545;-75
2023/06/04 08:59:45;;;;;;;0.38;0.38;;;;;;;;;;5082307;28;45220;-73
2023/06/04 09:02:11;;;;;;;0.20;0.20;;;;;;;;;;5081604;28;20123;-76
2023/06/04 09:04:39;;;;;;;1.10;0.30;;;;;;;;;;5080175;28;20132;-76
2023/06/04 09:07:06;;;;;;;0.20;0.20;;;;;;;;;;5079476;28;20059;-74
2023/06/04 09:09:36;;;;;;;0.20;0.20;;;;;;;;;;5081698;28;20060;-74
2023/06/04 09:12:04;;;;;;;0.20;0.20;;;;;;;;;;5071727;28;20049;-75
2023/06/04 09:14:30;;;;;;;0.47;0.35;;;;;;;;;;5082090;28;20947;-75
2023/06/04 09:16:58;;;;;;;0.28;0.28;;;;;;;;;;5082585;28;20138;-74
2023/06/04 09:19:25;;;;;;;0.30;0.30;;;;;;;;;;5081735;28;20053;-75
2023/06/04 09:21:52;;;;;;;0.20;0.20;;;;;;;;;;5081273;28;20048;-73
2023/06/04 09:24:19;;;;;;;0.22;0.22;;;;;;;;;;5081811;28;20048;-76
2023/06/04 09:26:46;;;;;;;0.98;0.40;;;;;;;;;;5078988;28;20056;-76
2023/06/04 09:29:13;;;;;;;0.20;0.20;;;;;;;;;;5080347;28;20135;-76
2023/06/04 09:31:40;;;;;;;0.20;0.20;;;;;;;;;;5081616;28;20127;-76
2023/06/04 09:34:06;;;;;;;0.20;0.20;;;;;;;;;;5081030;28;20044;-75
2023/06/04 09:36:34;;;;;;;0.20;0.20;;;;;;;;;;5081369;28;20139;-76
2023/06/04 09:39:14;;;;;;;0.20;0.20;;;;;;;;;;5081760;28;20455;-74
2023/06/04 09:41:40;;;;;;;0.30;0.30;;;;;;;;;;5078642;28;20053;-75
2023/06/04 09:44:10;;;;;;;0.40;0.40;;;;;;;;;;5080787;28;20048;-76
2023/06/04 09:46:36;;;;;;;0.30;0.30;;;;;;;;;;5078349;28;20056;-76
2023/06/04 09:49:04;;;;;;;0.20;0.20;;;;;;;;;;5081614;28;20063;-76
2023/06/04 09:51:31;;;;;;;0.30;0.30;;;;;;;;;;5081245;28;20124;-74
2023/06/04 09:53:58;;;;;;;0.40;0.40;;;;;;;;;;5082633;28;20151;-76
2023/06/04 09:56:26;;;;;;;0.20;0.20;;;;;;;;;;5083830;28;20051;-75
2023/06/04 09:58:53;;;;;;;0.30;0.30;;;;;;;;;;5084221;28;20314;-75
2023/06/04 10:01:21;;;;;;;0.20;0.20;;;;;;;;;;5082182;28;20855;-75
2023/06/04 10:03:49;;;;;;;0.30;0.30;;;;;;;;;;5084488;28;20049;-74
2023/06/04 10:06:18;;;;;;;0.30;0.30;;;;;;;;;;5084899;28;20115;-75
2023/06/04 10:08:45;;;;;;;0.30;0.30;;;;;;;;;;5083144;28;20544;-76
2023/06/04 10:11:14;;;;;;;0.30;0.30;;;;;;;;;;5084282;28;20079;-74
2023/06/04 10:13:45;;;;;;;0.30;0.30;;;;;;;;;;5065567;28;20052;-74
2023/06/04 10:16:12;;;;;;;0.20;0.20;;;;;;;;;;5071487;28;20091;-75
2023/06/04 10:18:55;;;;;;;0.30;0.30;;;;;;;;;;5080940;28;20068;-75
2023/06/04 10:21:22;;;;;;;0.20;0.20;;;;;;;;;;5078236;28;20176;-75
2023/06/04 10:23:49;;;;;;;0.30;0.30;;;;;;;;;;5085139;28;20072;-75
2023/06/04 10:26:16;;;;;;;0.30;0.30;;;;;;;;;;5085157;28;20062;-74
2023/06/04 10:28:43;;;;;;;0.38;0.38;;;;;;;;;;5082427;28;20052;-73
2023/06/04 10:31:10;;;;;;;0.20;0.20;;;;;;;;;;5084424;28;20503;-75
2023/06/04 10:33:37;;;;;;;0.28;0.28;;;;;;;;;;5080706;28;20053;-75
2023/06/04 10:36:17;;;;;;;0.30;0.30;;;;;;;;;;5083910;28;20057;-75
2023/06/04 10:38:47;;;;;;;0.30;0.30;;;;;;;;;;5083549;28;20041;-75
2023/06/04 10:41:15;;;;;;;0.30;0.30;;;;;;;;;;5083762;28;20057;-75
2023/06/04 10:43:43;;;;;;;0.28;0.28;;;;;;;;;;5084530;28;20055;-75
2023/06/04 10:46:13;;;;;;;0.30;0.30;;;;;;;;;;5083086;28;20059;-73
2023/06/04 10:48:46;;;;;;;0.30;0.30;;;;;;;;;;5082068;28;20144;-75
2023/06/04 10:51:13;;;;;;;0.30;0.30;;;;;;;;;;5076209;28;20932;-75
2023/06/04 10:53:39;;;;;;;0.30;0.30;;;;;;;;;;5081844;28;20239;-75
2023/06/04 10:56:06;;;;;;;0.30;0.30;;;;;;;;;;5083724;28;20139;-72
2023/06/04 10:58:33;;;;;;;0.40;0.40;;;;;;;;;;5084878;28;20048;-75
2023/06/04 11:00:59;;;;;;;2.72;1.27;;;;;;;;;;5083213;28;20132;-75
2023/06/04 11:03:36;;;;;;;0.30;0.30;;;;;;;;;;5083278;28;20160;-73
2023/06/04 11:06:02;;;;;;;0.30;0.30;;;;;;;;;;5082691;28;20052;-74
2023/06/04 11:08:29;;;;;;;0.30;0.30;;;;;;;;;;5082946;28;20921;-73
2023/06/04 11:10:56;;;;;;;0.32;0.32;;;;;;;;;;5082092;28;20059;-74
2023/06/04 11:13:24;;;;;;;0.30;0.30;;;;;;;;;;5082519;28;20160;-74
2023/06/04 11:15:51;;;;;;;0.28;0.28;;;;;;;;;;5082207;28;20049;-73
2023/06/04 11:18:18;;;;;;;0.30;0.30;;;;;;;;;;5083138;28;20060;-73
2023/06/04 11:20:46;;;;;;;0.30;0.30;;;;;;;;;;5079802;28;20052;-75
2023/06/04 11:23:13;;;;;;;0.30;0.30;;;;;;;;;;5079513;28;20600;-74
2023/06/04 11:25:40;;;;;;;0.30;0.30;;;;;;;;;;5079427;28;20416;-74
2023/06/04 11:28:07;;;;;;;0.40;0.40;;;;;;;;;;5080430;28;20056;-75
2023/06/04 11:30:33;;;;;;;0.30;0.30;;;;;;;;;;5082871;28;20052;-74
2023/06/04 11:33:04;;;;;;;0.30;0.30;;;;;;;;;;5083619;28;20102;-74
2023/06/04 11:35:31;;;;;;;0.32;0.32;;;;;;;;;;5082573;28;20571;-72
2023/06/04 11:37:58;;;;;;;0.30;0.30;;;;;;;;;;5082461;28;20299;-73
2023/06/04 11:40:26;;;;;;;0.63;0.63;;;;;;;;;;5082988;28;20053;-73
2023/06/04 11:42:53;;;;;;;0.30;0.30;;;;;;;;;;5083448;28;20059;-73
2023/06/04 11:45:20;;;;;;;0.32;0.30;;;;;;;;;;5082243;28;20056;-74
2023/06/04 11:47:47;;;;;;;0.30;0.30;;;;;;;;;;5081056;28;20286;-73
2023/06/04 11:50:14;;;;;;;0.30;0.30;;;;;;;;;;5081751;28;20048;-73
2023/06/04 11:52:41;;;;;;;0.30;0.30;;;;;;;;;;5083532;28;20052;-72
2023/06/04 11:55:09;;;;;;;0.30;0.30;;;;;;;;;;5083128;28;20063;-73
2023/06/04 11:57:36;;;;;;;0.63;0.60;;;;;;;;;;5081652;28;20540;-72
2023/06/04 12:00:05;;;;;;;0.30;0.30;;;;;;;;;;5083999;28;20569;-73
2023/06/04 12:02:31;;;;;;;0.30;0.30;;;;;;;;;;5082488;28;20082;-73
2023/06/04 12:04:58;;;;;;;0.30;0.30;;;;;;;;;;5082502;28;20056;-72
2023/06/04 12:07:25;;;;;;;0.52;0.52;;;;;;;;;;5081574;28;20056;-75
2023/06/04 12:09:51;;;;;;;0.30;0.30;;;;;;;;;;5070162;28;20056;-74
2023/06/04 12:12:21;;;;;;;0.30;0.30;;;;;;;;;;5083925;28;20510;-72
2023/06/04 12:14:47;;;;;;;0.40;0.40;;;;;;;;;;5082559;28;20530;-75
2023/06/04 12:17:14;;;;;;;0.30;0.30;;;;;;;;;;5083425;28;20518;-73
2023/06/04 12:19:50;;;;;;;0.30;0.30;;;;;;;;;;5082410;28;20056;-72
2023/06/04 12:22:16;;;;;;;0.30;0.30;;;;;;;;;;5077625;28;20052;-73
2023/06/04 12:24:47;;;;;;;0.30;0.30;;;;;;;;;;5083583;28;20132;-72
2023/06/04 12:27:13;;;;;;;0.30;0.30;;;;;;;;;;5081294;28;20049;-72
2023/06/04 12:29:40;;;;;;;0.30;0.30;;;;;;;;;;5080880;28;20512;-73
2023/06/04 12:32:07;;;;;;;0.40;0.40;;;;;;;;;;5081347;28;20060;-72
2023/06/04 12:34:38;;;;;;;0.40;0.40;;;;;;;;;;5081470;28;20056;-73
2023/06/04 12:37:05;;;;;;;0.30;0.30;;;;;;;;;;5071776;28;20052;-74
2023/06/04 12:39:32;;;;;;;0.50;0.50;;;;;;;;;;5082085;28;20057;-72
2023/06/04 12:41:59;;;;;;;0.30;0.30;;;;;;;;;;5082992;28;20079;-74
2023/06/04 12:44:26;;;;;;;0.32;0.32;;;;;;;;;;5081709;28;20056;-72
2023/06/04 12:46:52;;;;;;;0.30;0.30;;;;;;;;;;5081523;28;20059;-72
2023/06/04 12:49:18;;;;;;;0.30;0.30;;;;;;;;;;5080150;28;20061;-72
2023/06/04 12:51:46;;;;;;;0.30;0.30;;;;;;;;;;5080931;28;20517;-73
2023/06/04 12:54:12;;;;;;;0.30;0.30;;;;;;;;;;5080520;28;20106;-73
2023/06/04 12:56:40;;;;;;;0.32;0.32;;;;;;;;;;5067145;28;20553;-72
2023/06/04 12:59:06;;;;;;;0.30;0.30;;;;;;;;;;5071927;28;20579;-72
2023/06/04 13:01:33;;;;;;;0.30;0.30;;;;;;;;;;5076314;28;20087;-72
2023/06/04 13:03:59;;;;;;;0.40;0.40;;;;;;;;;;5078979;28;20442;-72
2023/06/04 13:06:26;;;;;;;0.30;0.30;;;;;;;;;;5078438;28;20083;-72
2023/06/04 13:08:53;;;;;;;0.30;0.30;;;;;;;;;;5079387;28;20138;-72
2023/06/04 13:11:19;;;;;;;0.30;0.30;;;;;;;;;;5079365;28;21109;-72
2023/06/04 13:13:45;;;;;;;0.40;0.40;;;;;;;;;;5069685;28;20106;-74
2023/06/04 13:16:12;;;;;;;0.30;0.30;;;;;;;;;;5082817;28;20048;-72
2023/06/04 13:18:39;;;;;;;0.30;0.30;;;;;;;;;;5078401;28;20540;-71
2023/06/04 13:21:05;;;;;;;0.30;0.30;;;;;;;;;;5082135;28;20048;-73
2023/06/04 13:23:32;;;;;;;0.30;0.30;;;;;;;;;;5077751;28;20118;-71
2023/06/04 13:26:16;;;;;;;0.40;0.40;;;;;;;;;;5080143;28;20268;-72
2023/06/04 13:28:43;;;;;;;0.30;0.30;;;;;;;;;;5082934;28;20049;-71
2023/06/04 13:31:10;;;;;;;0.30;0.30;;;;;;;;;;5085635;28;20127;-73
2023/06/04 13:33:36;;;;;;;0.30;0.30;;;;;;;;;;5083355;28;20057;-71
2023/06/04 13:36:03;;;;;;;0.30;0.30;;;;;;;;;;5085327;28;20773;-71
2023/06/04 13:38:29;;;;;;;0.30;0.30;;;;;;;;;;5083283;28;20056;-71
2023/06/04 13:40:56;;;;;;;0.30;0.30;;;;;;;;;;5085562;28;20052;-73
2023/06/04 13:43:22;;;;;;;0.40;0.40;;;;;;;;;;5085262;28;20071;-71
2023/06/04 13:45:49;;;;;;;0.30;0.30;;;;;;;;;;5083182;28;20052;-71
2023/06/04 13:48:15;;;;;;;0.30;0.30;;;;;;;;;;5084417;28;20585;-71
2023/06/04 13:50:42;;;;;;;0.30;0.30;;;;;;;;;;5083965;28;20052;-72
2023/06/04 13:53:08;;;;;;;0.30;0.30;;;;;;;;;;5080059;28;20465;-72
2023/06/04 13:55:35;;;;;;;0.45;0.45;;;;;;;;;;5084863;28;20049;-73
2023/06/04 13:58:01;;;;;;;0.30;0.30;;;;;;;;;;5083607;28;20501;-74
2023/06/04 14:00:29;;;;;;;0.30;0.30;;;;;;;;;;5068409;28;20052;-73
2023/06/04 14:02:56;;;;;;;0.30;0.30;;;;;;;;;;5080937;28;20080;-73
2023/06/04 14:05:24;;;;;;;0.30;0.30;;;;;;;;;;5065331;28;20099;-72
2023/06/04 14:07:51;;;;;;;0.28;0.28;;;;;;;;;;5081350;28;20056;-74
2023/06/04 14:10:17;;;;;;;0.30;0.30;;;;;;;;;;5082873;28;20508;-74
2023/06/04 14:12:44;;;;;;;0.30;0.30;;;;;;;;;;5083253;28;20522;-74
2023/06/04 14:15:13;;;;;;;0.22;0.22;;;;;;;;;;5068451;28;20064;-73
2023/06/04 14:17:40;;;;;;;0.20;0.20;;;;;;;;;;5085347;28;20048;-73
2023/06/04 14:20:08;;;;;;;0.30;0.30;;;;;;;;;;5085236;28;20633;-73
2023/06/04 14:22:35;;;;;;;0.30;0.30;;;;;;;;;;5084791;28;20148;-72
2023/06/04 14:25:02;;;;;;;0.30;0.30;;;;;;;;;;5085725;28;20568;-74
2023/06/04 14:27:29;;;;;;;0.57;0.32;;;;;;;;;;5084981;28;20060;-73
2023/06/04 14:29:55;;;;;;;0.35;0.30;;;;;;;;;;5084809;28;20044;-74
2023/06/04 14:32:22;;;;;;;0.30;0.30;;;;;;;;;;5067369;28;20384;-73
2023/06/04 14:34:48;;;;;;;0.22;0.22;;;;;;;;;;5897825;22;20465;-73
2023/06/04 14:37:15;;;;;;;0.43;0.35;;;;;;;;;;5033575;28;20104;-71
2023/06/04 14:39:41;;;;;;;0.30;0.30;;;;;;;;;;5043880;28;20053;-71
2023/06/04 14:42:08;;;;;;;0.88;0.45;;;;;;;;;;5043874;28;20053;-73
2023/06/04 14:44:34;;;;;;;0.40;0.30;;;;;;;;;;5033033;28;20054;-71
2023/06/04 14:47:01;;;;;;;0.30;0.30;;;;;;;;;;5052153;28;20049;-71
2023/06/04 14:49:27;;;;;;;0.20;0.20;;;;;;;;;;5039346;28;20263;-75
2023/06/04 14:51:54;;;;;;;0.30;0.30;;;;;;;;;;5043727;28;20061;-71
2023/06/04 14:54:20;;;;;;;0.20;0.20;;;;;;;;;;5042410;28;20530;-71
2023/06/04 14:56:46;;;;;;;0.20;0.20;;;;;;;;;;5041742;28;20053;-73
2023/06/04 14:59:13;;;;;;;0.30;0.30;;;;;;;;;;5044331;28;20130;-74
2023/06/04 15:01:40;;;;;;;0.20;0.20;;;;;;;;;;5049006;28;20539;-72